CEB967 RPMD-RPLL
Flight info
| Callsign | CEB967 |
|---|---|
| Flight time | N/A |
| Altitude | 34000 |
| Route | ANKIN3R ANKIN B473 LAIYA LAIYA3R |
| Aircraft | A21N/M-SDE1E2E3FHIJ1RWY/LB1 |
Departure
| Time | 2026-05-01 15:28 |
|---|---|
| Airport | Francisco Bangoy International Airport (RPMD) |
Arrival
| Time | N/A |
|---|---|
| Airport | Ninoy Aquino International Airport (RPLL) |
| Time | Latitude | Longitude | Altitude | Speed | Heading |
|---|---|---|---|---|---|
| 2026-05-01 14:51 | 7.12945 | 125.64552 | 112 ft | 0 kts | 319° |
| 2026-05-01 15:18 | 7.12931 | 125.64565 | 112 ft | 2 kts | 319° |
| 2026-05-01 15:19 | 7.12924 | 125.64571 | 112 ft | 2 kts | 319° |
| 2026-05-01 15:19 | 7.12903 | 125.64641 | 112 ft | 0 kts | 231° |
| 2026-05-01 15:19 | 7.12907 | 125.64646 | 112 ft | 1 kts | 228° |
| 2026-05-01 15:20 | 7.12908 | 125.64646 | 112 ft | 0 kts | 229° |
| 2026-05-01 15:22 | 7.12878 | 125.64613 | 112 ft | 7 kts | 229° |
| 2026-05-01 15:22 | 7.12837 | 125.64565 | 112 ft | 10 kts | 229° |
| 2026-05-01 15:22 | 7.12784 | 125.64504 | 112 ft | 11 kts | 230° |
| 2026-05-01 15:23 | 7.12727 | 125.64448 | 112 ft | 11 kts | 200° |
| 2026-05-01 15:23 | 7.12656 | 125.64481 | 112 ft | 12 kts | 138° |
| 2026-05-01 15:23 | 7.12591 | 125.64539 | 112 ft | 12 kts | 140° |
| 2026-05-01 15:23 | 7.12516 | 125.64533 | 112 ft | 12 kts | 221° |
| 2026-05-01 15:24 | 7.12457 | 125.64467 | 112 ft | 12 kts | 229° |
| 2026-05-01 15:24 | 7.12399 | 125.64400 | 112 ft | 12 kts | 229° |
| 2026-05-01 15:24 | 7.12340 | 125.64330 | 112 ft | 13 kts | 230° |
| 2026-05-01 15:24 | 7.12278 | 125.64258 | 112 ft | 14 kts | 229° |
| 2026-05-01 15:25 | 7.12211 | 125.64181 | 112 ft | 15 kts | 229° |
| 2026-05-01 15:25 | 7.12138 | 125.64096 | 112 ft | 16 kts | 229° |
| 2026-05-01 15:25 | 7.12049 | 125.63992 | 112 ft | 22 kts | 229° |
| 2026-05-01 15:25 | 7.11939 | 125.63866 | 112 ft | 25 kts | 229° |
| 2026-05-01 15:26 | 7.11824 | 125.63731 | 112 ft | 24 kts | 230° |
| 2026-05-01 15:26 | 7.11752 | 125.63627 | 112 ft | 13 kts | 260° |
| 2026-05-01 15:26 | 7.11738 | 125.63541 | 112 ft | 9 kts | 210° |
| 2026-05-01 15:26 | 7.11690 | 125.63556 | 112 ft | 5 kts | 119° |
| 2026-05-01 15:27 | 7.11706 | 125.63596 | 112 ft | 7 kts | 49° |
| 2026-05-01 15:27 | 7.11834 | 125.63745 | 112 ft | 60 kts | 49° |
| 2026-05-01 15:27 | 7.12263 | 125.64244 | 112 ft | 124 kts | 49° |
| 2026-05-01 15:28 | 7.13742 | 125.65965 | 700 ft | 172 kts | 48° |
| 2026-05-01 15:28 | 7.14517 | 125.66838 | 1418 ft | 166 kts | 44° |
| 2026-05-01 15:28 | 7.15552 | 125.67318 | 1856 ft | 169 kts | 358° |
| 2026-05-01 15:29 | 7.17964 | 125.66781 | 2522 ft | 184 kts | 346° |
| 2026-05-01 15:29 | 7.19228 | 125.66493 | 2936 ft | 187 kts | 350° |
| 2026-05-01 15:29 | 7.21843 | 125.66157 | 3819 ft | 192 kts | 355° |
| 2026-05-01 15:30 | 7.24176 | 125.65807 | 4256 ft | 216 kts | 350° |
| 2026-05-01 15:31 | 7.31703 | 125.64523 | 5767 ft | 277 kts | 352° |
| 2026-05-01 15:31 | 7.35543 | 125.63957 | 7061 ft | 281 kts | 353° |
| 2026-05-01 15:32 | 7.39445 | 125.63436 | 8309 ft | 284 kts | 354° |
| 2026-05-01 15:32 | 7.43431 | 125.62846 | 9259 ft | 296 kts | 353° |
| 2026-05-01 15:33 | 7.48688 | 125.59713 | 10582 ft | 321 kts | 309° |
| 2026-05-01 15:34 | 7.52923 | 125.54117 | 11758 ft | 341 kts | 309° |